メインページ
METAR-TAF:

METAR-TAF

空港 :

マルティニーク・エメ・セゼール国際空港

フォール=ド=フランス, マルティニーク

緯度: 14-36N, 経度: 061-00W, 海抜: 5m

現時点の気象観測

当レポートは16分前の11:30(UTC)に作成
南東の風 5kt、東/南東からの間で変化する
気温 27°C
湿度 84%
気圧 1016 hPa
視程10km以上
高度2500ftの雲は散在している
高度5400ftの雲は散在している
高度6400ftの千切れ雲あり

METAR: TFFF 221130Z AUTO 13005KT 110V170 9999 SCT025 SCT054 BKN064 27/24 Q1016 TEMPO 4000 SHRA SCT013CB BKN015

時間: 07:46 (11:46 UTC)

予報

当レポートは46分前の11:00(UTC)に作成
予報は22日の 12時(UTC)から 23日の 12時(UTC)まで有効
の風 8kt
視程10km以上
高度2500ftの雲は散在している
高度3600ftの千切れ雲あり
22日の 12時(UTC)から 23日の 12時(UTC)まで一時的に
視程: 4000m
高度1300ftの雲は散在している, 積乱雲.
高度1500ftの千切れ雲あり
にわか雨
確率 40% :
22日の 15時(UTC)から 22日の 21時(UTC)まで一時的に
変向風 15kt、最大25ktの突風を伴う
視程: 1500m
高度1100ftの千切れ雲あり, 積乱雲.
激しい雷雨, 小雨

TAF: TFFF 221100Z 2212/2312 09008KT 9999 SCT025 BKN036 TEMPO 2212/2312 4000 SHRA SCT013CB BKN015 PROB40 TEMPO 2215/2221 VRB15G25KT 1500 -TSRA BKN011CB

4,000以上の空港の気象観測と天気予報(METAR報とTAF報)

利用可能な観測所は地図上に黄色い丸と赤い丸で示す。

丸の上にカーソルを重ねると観測所名を参照できる。

次にクリックすると気象観測と天気予報を参照できる。

マップの切り替え:黒色「×」印の緑ボタンをクリックして拡大、「-」印の緑ボタンをクリックして縮小、緑色の三角印をクリックして隣りの地図に切り替え


METAR-TAF: